Time;durP1;ratioP1;P1;durP2;ratioP2;P2;SDS_P1;SDS_P2;PMS_P1;PMS_P2;Temp;Humidity;BMP_temperature;BMP_pressure;BME280_temperature;BME280_humidity;BME280_pressure;Samples;Min_cycle;Max_cycle;Signal;HPM_P1;HPM_P2
2023/08/07 00:00:19;;;;;;;0.60;0.60;;;;;;;10.87;97.84;96727.16;29395;254;63004;-62
2023/08/07 00:00:50;;;;;;;0.50;0.50;;;;;;;10.88;97.04;96724.13;29395;206;63009;-59
2023/08/07 00:01:22;;;;;;;0.50;0.50;;;;;;;10.86;97.22;96722.81;29395;196;63004;-58
2023/08/07 00:01:57;;;;;;;0.73;0.73;;;;;;;10.85;97.59;96722.03;29395;208;63008;-58
2023/08/07 00:02:30;;;;;;;0.50;0.50;;;;;;;10.81;97.13;96722.91;29394;219;64008;-57
2023/08/07 00:03:01;;;;;;;0.50;0.50;;;;;;;10.77;97.30;96732.75;29395;273;63009;-56
2023/08/07 00:03:32;;;;;;;0.50;0.50;;;;;;;10.72;97.26;96723.63;29395;229;63005;-59
2023/08/07 00:04:04;;;;;;;0.50;0.50;;;;;;;10.74;97.54;96724.09;29395;262;63009;-58
2023/08/07 00:04:35;;;;;;;0.50;0.50;;;;;;;10.72;97.84;96726.31;29395;199;63005;-61
2023/08/07 00:05:07;;;;;;;0.50;0.50;;;;;;;10.76;97.73;96731.94;29395;222;63009;-61
2023/08/07 00:05:38;;;;;;;0.50;0.50;;;;;;;10.76;97.86;96731.94;29394;231;64009;-58
2023/08/07 00:06:10;;;;;;;0.50;0.50;;;;;;;10.75;97.16;96730.31;29395;220;63009;-60
2023/08/07 00:06:41;;;;;;;0.50;0.50;;;;;;;10.71;97.40;96727.44;29395;296;63004;-57
2023/08/07 00:07:12;;;;;;;0.50;0.50;;;;;;;10.77;97.59;96730.84;29395;216;63009;-55
2023/08/07 00:07:44;;;;;;;0.50;0.50;;;;;;;10.78;96.71;96728.94;29394;219;64009;-63
2023/08/07 00:08:15;;;;;;;0.50;0.50;;;;;;;10.78;96.34;96724.31;29395;326;63009;-60
2023/08/07 00:08:47;;;;;;;0.50;0.50;;;;;;;10.81;97.04;96728.34;29395;202;63004;-58
2023/08/07 00:09:18;;;;;;;0.50;0.50;;;;;;;10.79;96.96;96725.13;29395;199;63008;-56
2023/08/07 00:09:49;;;;;;;0.50;0.50;;;;;;;10.78;96.68;96729.72;29395;237;63004;-60
2023/08/07 00:10:21;;;;;;;0.50;0.50;;;;;;;10.77;96.97;96730.03;29395;215;63009;-60
2023/08/07 00:10:52;;;;;;;0.50;0.50;;;;;;;10.74;96.99;96724.09;29394;218;64009;-57
2023/08/07 00:11:24;;;;;;;0.50;0.50;;;;;;;10.72;97.23;96730.94;29395;209;63009;-57
2023/08/07 00:11:55;;;;;;;0.50;0.50;;;;;;;10.78;96.00;96724.31;29395;203;63005;-59
2023/08/07 00:12:27;;;;;;;0.50;0.50;;;;;;;10.78;95.65;96728.94;29395;248;63009;-57
2023/08/07 00:12:58;;;;;;;0.85;0.85;;;;;;;10.78;96.22;96729.72;29395;208;63005;-59
2023/08/07 00:13:31;;;;;;;0.50;0.50;;;;;;;10.75;96.29;96733.84;29395;246;63009;-61
2023/08/07 00:14:03;;;;;;;0.40;0.40;;;;;;;10.79;96.78;96735.97;29395;233;63005;-74
2023/08/07 00:14:34;;;;;;;0.50;0.50;;;;;;;10.82;95.77;96729.94;29395;267;63009;-58
2023/08/07 00:15:07;;;;;;;0.50;0.50;;;;;;;10.81;95.42;96737.28;29394;255;64009;-58
2023/08/07 00:15:40;;;;;;;0.50;0.50;;;;;;;10.80;95.66;96732.16;29394;203;64013;-57
2023/08/07 00:16:11;;;;;;;0.50;0.50;;;;;;;10.78;96.09;96726.22;29395;314;63019;-58
2023/08/07 00:16:43;;;;;;;0.50;0.50;;;;;;;10.71;96.42;96724.72;29395;206;63011;-60
2023/08/07 00:17:14;;;;;;;0.50;0.50;;;;;;;10.71;96.92;96730.16;29395;230;63004;-61
2023/08/07 00:17:45;;;;;;;0.50;0.50;;;;;;;10.72;96.76;96731.75;29395;212;63009;-60
2023/08/07 00:18:16;;;;;;;0.50;0.50;;;;;;;10.73;96.18;96729.84;29395;204;63016;-57
2023/08/07 00:18:47;;;;;;;0.50;0.50;;;;;;;10.70;96.35;96733.97;29395;230;63009;-59
2023/08/07 00:19:19;;;;;;;0.50;0.50;;;;;;;10.81;95.69;96739.19;29395;267;63005;-60
2023/08/07 00:19:50;;;;;;;0.50;0.50;;;;;;;10.82;94.58;96738.91;29395;244;63009;-58
2023/08/07 00:20:23;;;;;;;0.50;0.50;;;;;;;10.79;95.05;96733.25;29395;231;63009;-57
2023/08/07 00:20:54;;;;;;;0.50;0.50;;;;;;;10.73;94.96;96738.78;29394;222;64013;-58
2023/08/07 00:21:26;;;;;;;0.50;0.50;;;;;;;10.70;95.58;96739.37;29395;202;63005;-62
2023/08/07 00:21:57;;;;;;;0.50;0.50;;;;;;;10.69;95.84;96737.78;29395;212;63009;-57
2023/08/07 00:22:28;;;;;;;0.50;0.50;;;;;;;10.72;96.38;96744.53;29395;202;63004;-60
2023/08/07 00:23:01;;;;;;;0.50;0.50;;;;;;;10.69;96.12;96736.97;29395;222;63009;-61
2023/08/07 00:23:32;;;;;;;0.50;0.50;;;;;;;10.70;96.69;96742.09;29395;201;63004;-62
2023/08/07 00:24:05;;;;;;;0.50;0.50;;;;;;;10.70;96.58;96735.88;29394;224;64003;-59
2023/08/07 00:24:39;;;;;;;0.50;0.50;;;;;;;10.67;96.64;96736.47;29395;207;63004;-59
2023/08/07 00:25:11;;;;;;;0.60;0.60;;;;;;;10.64;96.95;96740.56;29394;244;64014;-58
2023/08/07 00:25:43;;;;;;;0.50;0.50;;;;;;;10.66;97.51;96743.78;29395;212;63013;-59
2023/08/07 00:26:14;;;;;;;0.50;0.50;;;;;;;10.70;97.22;96742.09;29395;202;63019;-56
2023/08/07 00:26:45;;;;;;;0.50;0.50;;;;;;;10.71;97.01;96746.44;29395;207;63005;-57
2023/08/07 00:27:17;;;;;;;0.45;0.45;;;;;;;10.70;96.68;96744.81;29395;244;63009;-59
2023/08/07 00:27:49;;;;;;;0.50;0.50;;;;;;;10.69;95.93;96747.81;29395;226;63005;-57
2023/08/07 00:28:20;;;;;;;0.60;0.60;;;;;;;10.68;95.80;96749.72;29395;218;63009;-58
2023/08/07 00:28:51;;;;;;;0.50;0.50;;;;;;;10.69;96.03;96753.25;29395;204;63005;-59
2023/08/07 00:29:23;;;;;;;0.50;0.50;;;;;;;10.72;96.04;96742.62;29395;204;63009;-56
2023/08/07 00:29:55;;;;;;;0.50;0.50;;;;;;;10.73;95.28;96749.66;29395;199;63004;-58
2023/08/07 00:30:27;;;;;;;0.50;0.50;;;;;;;10.78;94.86;96740.59;29394;208;64013;-60
2023/08/07 00:30:58;;;;;;;0.50;0.50;;;;;;;10.78;95.25;96747.94;29395;228;63004;-57
2023/08/07 00:31:31;;;;;;;0.50;0.50;;;;;;;10.79;95.05;96744.13;29395;209;63009;-57
2023/08/07 00:32:03;;;;;;;0.50;0.50;;;;;;;10.72;94.71;96749.94;29394;313;64008;-58
2023/08/07 00:32:35;;;;;;;0.50;0.50;;;;;;;10.73;95.32;96748.84;29394;231;64013;-61
2023/08/07 00:33:06;;;;;;;0.50;0.50;;;;;;;10.72;95.33;96753.47;29395;225;63012;-58
2023/08/07 00:33:38;;;;;;;0.50;0.50;;;;;;;10.71;95.53;96756.47;29395;213;63009;-57
2023/08/07 00:34:09;;;;;;;0.50;0.50;;;;;;;10.72;96.34;96748.03;29395;222;63005;-57
2023/08/07 00:34:43;;;;;;;0.50;0.50;;;;;;;10.77;95.46;96749.03;29395;209;63009;-57
2023/08/07 00:35:14;;;;;;;0.50;0.50;;;;;;;10.81;95.41;96747.34;29395;225;63005;-57
2023/08/07 00:35:46;;;;;;;0.50;0.50;;;;;;;10.77;95.00;96749.03;29395;250;63026;-58
2023/08/07 00:36:17;;;;;;;0.50;0.50;;;;;;;10.73;95.09;96756.97;29395;223;63005;-59
2023/08/07 00:36:48;;;;;;;0.50;0.50;;;;;;;10.71;95.47;96749.13;29395;248;63009;-59
2023/08/07 00:37:20;;;;;;;0.50;0.50;;;;;;;10.79;95.07;96744.13;29395;264;63004;-56
2023/08/07 00:37:51;;;;;;;0.50;0.50;;;;;;;10.80;94.41;96753.87;29394;288;64013;-57
2023/08/07 00:38:22;;;;;;;0.40;0.40;;;;;;;10.78;94.50;96756.88;29395;217;63004;-57
2023/08/07 00:38:54;;;;;;;0.50;0.50;;;;;;;10.75;94.43;96758.28;29395;218;63009;-58
2023/08/07 00:39:28;;;;;;;0.50;0.50;;;;;;;10.73;95.26;96757.78;29395;199;63004;-59
2023/08/07 00:40:00;;;;;;;0.40;0.40;;;;;;;10.71;94.70;96754.56;29395;323;63018;-57
2023/08/07 00:40:41;;;;;;;0.50;0.50;;;;;;;10.72;95.54;96758.88;29395;232;63005;-56
2023/08/07 00:41:12;;;;;;;0.50;0.50;;;;;;;10.74;94.96;96753.94;29394;243;64009;-58
2023/08/07 00:41:44;;;;;;;0.50;0.50;;;;;;;10.74;95.03;96756.66;29395;225;63005;-59
2023/08/07 00:42:15;;;;;;;0.50;0.50;;;;;;;10.73;95.07;96749.66;29394;228;64013;-58
2023/08/07 00:42:50;;;;;;;0.50;0.50;;;;;;;10.75;95.27;96758.28;29395;217;63005;-60
2023/08/07 00:43:21;;;;;;;0.50;0.50;;;;;;;10.77;95.49;96754.47;29394;214;64009;-58
2023/08/07 00:43:52;;;;;;;0.50;0.50;;;;;;;10.73;95.39;96755.06;29395;224;63004;-57
2023/08/07 00:44:23;;;;;;;0.50;0.50;;;;;;;10.77;95.39;96760.69;29395;271;63009;-60
2023/08/07 00:44:55;;;;;;;0.50;0.50;;;;;;;10.75;94.97;96760.19;29395;212;63004;-60
2023/08/07 00:45:30;;;;;;;0.50;0.50;;;;;;;10.72;95.03;96755.38;29395;216;63009;-57
2023/08/07 00:46:02;;;;;;;0.50;0.50;;;;;;;10.71;95.15;96757.28;29395;240;63004;-59
2023/08/07 00:46:34;;;;;;;0.50;0.50;;;;;;;10.68;94.74;96757.88;29395;221;63008;-59
2023/08/07 00:47:06;;;;;;;0.50;0.50;;;;;;;10.66;94.84;96760.06;29395;197;63005;-59
2023/08/07 00:47:38;;;;;;;0.50;0.50;;;;;;;10.65;95.57;96758.47;29394;245;64014;-61
2023/08/07 00:48:11;;;;;;;0.50;0.50;;;;;;;10.64;95.74;96762.28;29395;218;63011;-61
2023/08/07 00:48:42;;;;;;;0.50;0.50;;;;;;;10.69;95.08;96756.78;29395;213;63009;-58
2023/08/07 00:49:14;;;;;;;0.50;0.50;;;;;;;10.71;94.92;96751.84;29395;204;63005;-57
2023/08/07 00:49:45;;;;;;;0.50;0.50;;;;;;;10.70;94.48;96763.00;29395;249;63009;-57
2023/08/07 00:50:17;;;;;;;0.50;0.50;;;;;;;10.71;94.88;96753.75;29395;224;63005;-58
2023/08/07 00:50:52;;;;;;;0.50;0.50;;;;;;;10.69;95.10;96753.25;29395;216;63009;-57
2023/08/07 00:51:24;;;;;;;0.50;0.50;;;;;;;10.66;95.58;96760.06;29395;202;63004;-58
2023/08/07 00:51:55;;;;;;;0.50;0.50;;;;;;;10.67;95.77;96758.97;29395;231;63018;-59
2023/08/07 00:52:30;;;;;;;0.50;0.50;;;;;;;10.66;95.20;96765.50;29394;214;64009;-62
2023/08/07 00:53:02;;;;;;;0.50;0.50;;;;;;;10.73;94.36;96755.06;29395;265;63009;-60
2023/08/07 00:53:38;;;;;;;0.50;0.50;;;;;;;10.79;94.34;96753.06;29395;202;63004;-57
2023/08/07 00:54:12;;;;;;;0.50;0.50;;;;;;;10.80;92.97;96762.00;29395;224;63008;-59
2023/08/07 00:54:45;;;;;;;0.50;0.50;;;;;;;10.74;92.96;96762.09;29395;224;63005;-60
2023/08/07 00:55:16;;;;;;;0.50;0.50;;;;;;;10.71;93.99;96762.72;29395;203;63009;-58
2023/08/07 00:55:48;;;;;;;0.50;0.50;;;;;;;10.75;94.47;96762.88;29395;233;63011;-57
2023/08/07 00:56:20;;;;;;;0.50;0.50;;;;;;;10.75;94.71;96758.28;29395;214;63009;-59
2023/08/07 00:56:52;;;;;;;0.50;0.50;;;;;;;10.80;94.09;96756.56;29395;212;63005;-59
2023/08/07 00:57:24;;;;;;;0.50;0.50;;;;;;;10.81;93.31;96763.63;29395;258;63019;-60
2023/08/07 00:57:59;;;;;;;0.50;0.50;;;;;;;10.77;93.56;96762.59;29394;248;64000;-59
2023/08/07 00:58:33;;;;;;;0.50;0.50;;;;;;;10.73;93.37;96762.41;29395;203;63009;-57
2023/08/07 00:59:05;;;;;;;0.50;0.50;;;;;;;10.73;93.82;96760.50;29394;210;64009;-56
2023/08/07 00:59:37;;;;;;;0.50;0.50;;;;;;;10.72;93.35;96753.47;29395;242;63015;-57
2023/08/07 01:00:09;;;;;;;0.50;0.50;;;;;;;10.73;94.24;96765.94;29395;217;63004;-59
2023/08/07 01:00:42;;;;;;;0.50;0.50;;;;;;;10.72;93.52;96764.31;29395;252;63009;-58
2023/08/07 01:01:14;;;;;;;0.50;0.50;;;;;;;10.68;94.11;96757.06;29395;241;63004;-60
2023/08/07 01:01:46;;;;;;;0.50;0.50;;;;;;;10.64;94.27;96765.00;29395;196;63008;-59
2023/08/07 01:02:18;;;;;;;0.50;0.50;;;;;;;10.63;94.74;96771.50;29395;245;63005;-57
2023/08/07 01:02:51;;;;;;;0.50;0.50;;;;;;;10.63;95.06;96766.09;29395;202;63009;-60
2023/08/07 01:03:23;;;;;;;0.50;0.50;;;;;;;10.63;95.65;96766.09;29395;215;63005;-56
2023/08/07 01:03:54;;;;;;;0.50;0.50;;;;;;;10.63;95.05;96765.28;29395;215;63009;-58
2023/08/07 01:04:36;;;;;;;0.50;0.50;;;;;;;10.67;95.38;96766.31;29394;231;64009;-58
2023/08/07 01:05:10;;;;;;;0.50;0.50;;;;;;;10.68;95.30;96768.72;29394;197;64013;-57
2023/08/07 01:05:42;;;;;;;0.50;0.50;;;;;;;10.67;95.70;96758.97;29395;203;63005;-60
2023/08/07 01:06:14;;;;;;;0.50;0.50;;;;;;;10.66;95.48;96756.56;29395;252;63009;-57
2023/08/07 01:06:45;;;;;;;1.35;0.82;;;;;;;10.64;95.60;96756.84;29395;259;63004;-57
2023/08/07 01:07:18;;;;;;;0.50;0.50;;;;;;;10.69;95.77;96759.47;29395;215;63009;-57
2023/08/07 01:07:54;;;;;;;0.50;0.50;;;;;;;10.72;95.11;96771.66;29395;218;63004;-57
2023/08/07 01:08:27;;;;;;;0.50;0.50;;;;;;;10.69;93.67;96758.69;29395;225;63009;-58
2023/08/07 01:09:00;;;;;;;0.50;0.50;;;;;;;10.68;94.25;96767.91;29395;246;63012;-58
2023/08/07 01:09:32;;;;;;;0.50;0.50;;;;;;;10.68;94.41;96765.22;29395;201;63013;-58
2023/08/07 01:10:06;;;;;;;0.50;0.50;;;;;;;10.63;95.11;96768.81;29395;205;63008;-59
2023/08/07 01:11:37;;;;;;;0.50;0.50;;;;;;;10.62;95.68;96763.66;29395;258;63009;-58
2023/08/07 01:12:26;;;;;;;0.50;0.50;;;;;;;10.69;94.33;96769.53;29395;203;63005;-59
2023/08/07 01:13:21;;;;;;;0.50;0.50;;;;;;;10.71;94.06;96762.72;29395;252;63009;-59
2023/08/07 01:14:38;;;;;;;0.50;0.50;;;;;;;10.71;94.00;96773.56;29394;236;64009;-57
2023/08/07 01:15:22;;;;;;;0.50;0.50;;;;;;;10.69;94.54;96767.63;29395;221;63024;-58
2023/08/07 01:15:59;;;;;;;0.50;0.50;;;;;;;10.67;94.62;96767.13;29395;217;63004;-57
2023/08/07 01:17:16;;;;;;;0.50;0.50;;;;;;;10.68;94.86;96773.34;29395;223;63008;-58
2023/08/07 01:17:49;;;;;;;0.50;0.50;;;;;;;10.71;94.43;96773.56;29395;347;63005;-59
2023/08/07 01:18:23;;;;;;;0.50;0.50;;;;;;;10.74;93.97;96777.59;29395;202;63009;-57
2023/08/07 01:18:57;;;;;;;0.50;0.50;;;;;;;10.71;93.60;96768.13;29394;220;64001;-56
2023/08/07 01:19:29;;;;;;;0.50;0.50;;;;;;;10.73;93.87;96778.69;29395;207;63009;-58
2023/08/07 01:20:02;;;;;;;0.50;0.50;;;;;;;10.72;94.15;96780.59;29395;238;63005;-58
2023/08/07 01:20:34;;;;;;;0.50;0.50;;;;;;;10.73;94.10;96782.22;29395;205;63009;-58
2023/08/07 01:21:05;;;;;;;0.50;0.50;;;;;;;10.74;93.02;96772.94;29395;228;63005;-58
2023/08/07 01:21:37;;;;;;;0.50;0.50;;;;;;;10.72;93.26;96780.59;29395;210;63009;-62
2023/08/07 01:22:14;;;;;;;0.70;0.70;;;;;;;10.74;93.18;96772.16;29395;198;63004;-57
2023/08/07 01:22:49;;;;;;;0.50;0.50;;;;;;;10.70;93.06;96777.37;29394;211;64009;-57
2023/08/07 01:23:20;;;;;;;0.50;0.50;;;;;;;10.68;93.79;96774.16;29394;252;64009;-59
2023/08/07 01:23:51;;;;;;;0.50;0.50;;;;;;;10.72;93.73;96772.47;29395;212;63008;-57
2023/08/07 01:24:23;;;;;;;0.50;0.50;;;;;;;10.71;93.16;96770.84;29394;203;64008;-65
2023/08/07 01:24:54;;;;;;;0.50;0.50;;;;;;;10.78;92.32;96773.16;29394;255;64014;-57
2023/08/07 01:25:26;;;;;;;0.50;0.50;;;;;;;10.75;92.11;96769.13;29395;240;63005;-57
2023/08/07 01:25:58;;;;;;;0.50;0.50;;;;;;;10.75;93.06;96771.84;29395;244;63009;-57
2023/08/07 01:26:29;;;;;;;0.50;0.50;;;;;;;10.73;93.28;96765.94;29395;199;63008;-58
2023/08/07 01:27:15;;;;;;;0.50;0.50;;;;;;;10.71;93.52;96767.31;29395;222;63009;-57
2023/08/07 01:28:06;;;;;;;0.52;0.52;;;;;;;10.71;93.67;96767.31;29395;204;63005;-56
2023/08/07 01:28:42;;;;;;;;;;;;;;;10.71;93.92;96768.13;29996;983;6004;-57
2023/08/07 01:29:24;;;;;;;0.50;0.50;;;;;;;10.70;94.25;96769.25;29400;209;63017;-60
2023/08/07 01:30:36;;;;;;;0.50;0.50;;;;;;;10.77;93.52;96768.03;29394;203;64009;-58
2023/08/07 01:31:16;;;;;;;0.50;0.50;;;;;;;10.77;93.87;96765.31;29417;260;63004;-59
2023/08/07 01:31:52;;;;;;;0.50;0.50;;;;;;;10.79;94.13;96771.25;29395;196;63008;-56
2023/08/07 01:32:43;;;;;;;0.50;0.50;;;;;;;10.77;93.70;96776.16;29395;216;63007;-57
2023/08/07 01:33:26;;;;;;;0.50;0.50;;;;;;;10.77;93.22;96776.97;29416;260;64014;-58
2023/08/07 01:34:04;;;;;;;0.50;0.50;;;;;;;10.78;93.30;96772.34;29395;311;63005;-56
2023/08/07 01:34:37;;;;;;;0.50;0.50;;;;;;;10.77;93.26;96778.88;29395;255;63009;-57
2023/08/07 01:35:14;;;;;;;0.50;0.50;;;;;;;10.73;93.45;96771.38;29394;276;64009;-57
2023/08/07 01:35:53;;;;;;;0.50;0.50;;;;;;;10.73;93.96;96771.38;29394;266;64013;-58
2023/08/07 01:36:28;;;;;;;0.50;0.50;;;;;;;10.73;94.52;96779.50;29395;249;63004;-59
2023/08/07 01:37:03;;;;;;;0.50;0.50;;;;;;;10.74;94.40;96772.94;29395;225;63013;-58
2023/08/07 01:37:38;;;;;;;0.50;0.50;;;;;;;10.76;93.82;96764.50;29395;213;63006;-57
2023/08/07 01:38:12;;;;;;;0.50;0.50;;;;;;;10.77;93.21;96770.75;29395;209;63008;-61
2023/08/07 01:38:47;;;;;;;0.50;0.50;;;;;;;10.83;92.47;96769.56;29395;198;63004;-56
2023/08/07 01:39:19;;;;;;;0.70;0.70;;;;;;;10.83;92.53;96766.84;29395;205;63008;-57
2023/08/07 01:39:53;;;;;;;0.50;0.50;;;;;;;10.85;92.64;96775.50;29395;206;63005;-61
2023/08/07 01:40:25;;;;;;;0.50;0.50;;;;;;;10.82;91.93;96776.09;29395;243;63009;-57
2023/08/07 01:40:58;;;;;;;0.50;0.50;;;;;;;10.81;92.30;96777.19;29394;205;64009;-58
2023/08/07 01:41:30;;;;;;;0.50;0.50;;;;;;;10.79;92.51;96774.78;29395;216;63009;-60
2023/08/07 01:42:04;;;;;;;0.50;0.50;;;;;;;10.77;92.66;96776.16;29394;209;64005;-57
2023/08/07 01:42:37;;;;;;;0.50;0.50;;;;;;;10.74;93.00;96777.59;29395;204;63009;-57
2023/08/07 01:43:10;;;;;;;0.47;0.47;;;;;;;10.72;93.69;96780.59;29394;292;64009;-63
2023/08/07 01:43:42;;;;;;;0.50;0.50;;;;;;;10.75;93.85;96774.56;29395;218;63009;-58
2023/08/07 01:44:14;;;;;;;0.50;0.50;;;;;;;10.73;93.90;96771.38;29395;202;63004;-59
2023/08/07 01:44:46;;;;;;;0.50;0.50;;;;;;;10.72;93.91;96775.19;29395;206;63009;-57
2023/08/07 01:45:29;;;;;;;0.50;0.50;;;;;;;10.70;94.28;96780.09;29395;216;63004;-58
2023/08/07 01:46:00;;;;;;;0.50;0.50;;;;;;;10.70;94.35;96782.00;29394;214;64013;-60
2023/08/07 01:46:32;;;;;;;0.50;0.50;;;;;;;10.70;94.45;96774.66;29395;257;63005;-58
2023/08/07 01:47:04;;;;;;;0.50;0.50;;;;;;;10.72;94.41;96769.75;29395;218;63009;-57
2023/08/07 01:47:35;;;;;;;0.50;0.50;;;;;;;10.71;94.01;96773.56;29395;209;63005;-59
2023/08/07 01:48:06;;;;;;;0.50;0.50;;;;;;;10.71;94.19;96779.00;29395;214;63017;-57
2023/08/07 01:48:38;;;;;;;0.50;0.50;;;;;;;10.71;94.28;96779.00;29395;234;63005;-57
2023/08/07 01:49:09;;;;;;;0.50;0.50;;;;;;;10.71;94.14;96781.69;29395;200;63009;-57
2023/08/07 01:49:40;;;;;;;0.50;0.50;;;;;;;10.72;94.64;96774.38;29395;250;63005;-59
2023/08/07 01:50:12;;;;;;;0.50;0.50;;;;;;;10.73;94.43;96779.50;29395;207;63009;-60
2023/08/07 01:50:43;;;;;;;0.50;0.50;;;;;;;10.74;93.91;96778.38;29394;204;64009;-57
2023/08/07 01:51:15;;;;;;;0.50;0.50;;;;;;;10.73;93.63;96779.50;29395;224;63004;-59
2023/08/07 01:51:46;;;;;;;0.50;0.50;;;;;;;10.70;93.45;96780.09;29394;203;64004;-58
2023/08/07 01:52:18;;;;;;;0.50;0.50;;;;;;;10.71;94.06;96776.28;29395;208;63009;-60
2023/08/07 01:52:49;;;;;;;0.50;0.50;;;;;;;10.72;94.46;96772.47;29394;252;64009;-57
2023/08/07 01:53:22;;;;;;;0.50;0.50;;;;;;;10.70;93.60;96776.56;29395;246;63008;-57
2023/08/07 01:53:53;;;;;;;0.50;0.50;;;;;;;10.71;93.88;96778.19;29395;211;63004;-57
2023/08/07 01:54:25;;;;;;;0.50;0.50;;;;;;;10.72;94.50;96775.19;29395;211;63009;-58
2023/08/07 01:54:56;;;;;;;0.50;0.50;;;;;;;10.73;94.07;96782.22;29395;216;63005;-57
2023/08/07 01:55:28;;;;;;;0.50;0.50;;;;;;;10.72;94.58;96775.19;29395;235;63005;-57
2023/08/07 01:55:59;;;;;;;0.50;0.50;;;;;;;10.73;94.56;96782.22;29395;219;63009;-60
2023/08/07 01:56:30;;;;;;;0.50;0.50;;;;;;;10.71;94.82;96789.84;29395;211;63009;-57
2023/08/07 01:57:04;;;;;;;0.50;0.50;;;;;;;10.70;94.59;96782.81;29395;239;63005;-59
2023/08/07 01:57:35;;;;;;;0.50;0.50;;;;;;;10.72;94.52;96779.78;29395;216;63009;-57
2023/08/07 01:58:06;;;;;;;0.50;0.50;;;;;;;10.71;94.53;96784.41;29395;221;63005;-59
2023/08/07 01:58:38;;;;;;;0.50;0.50;;;;;;;10.71;94.57;96780.91;29395;223;63009;-57
2023/08/07 01:59:13;;;;;;;0.50;0.50;;;;;;;10.69;94.45;96783.91;29395;231;63010;-60
2023/08/07 01:59:47;;;;;;;0.50;0.50;;;;;;;10.68;94.55;96785.00;29394;210;64013;-60
2023/08/07 02:00:20;;;;;;;0.50;0.50;;;;;;;10.69;94.48;96786.63;29395;228;63004;-59
2023/08/07 02:00:51;;;;;;;0.50;0.50;;;;;;;10.70;94.46;96788.22;29395;197;63008;-61
2023/08/07 02:01:23;;;;;;;0.50;0.50;;;;;;;10.74;94.51;96794.66;29395;207;63004;-58
2023/08/07 02:01:59;;;;;;;0.50;0.50;;;;;;;10.75;92.15;96788.12;29395;258;63009;-58
2023/08/07 02:02:31;;;;;;;0.50;0.50;;;;;;;10.72;92.05;96775.19;29395;232;63005;-57
2023/08/07 02:03:02;;;;;;;0.50;0.50;;;;;;;10.74;92.24;96788.44;29395;223;63009;-57
2023/08/07 02:03:34;;;;;;;0.50;0.50;;;;;;;10.78;90.88;96777.78;29395;204;63005;-56
2023/08/07 02:04:05;;;;;;;0.50;0.50;;;;;;;10.79;90.76;96779.41;29395;196;63009;-60
2023/08/07 02:04:37;;;;;;;0.50;0.50;;;;;;;10.75;90.21;96779.19;29395;213;63005;-59
2023/08/07 02:05:08;;;;;;;0.50;0.50;;;;;;;10.82;90.28;96789.66;29394;237;64013;-58
2023/08/07 02:05:44;;;;;;;0.50;0.50;;;;;;;10.83;89.81;96778.50;29395;235;63005;-58
2023/08/07 02:06:15;;;;;;;0.50;0.50;;;;;;;10.83;89.92;96785.84;29395;317;63009;-59
2023/08/07 02:06:47;;;;;;;0.50;0.50;;;;;;;10.83;89.63;96774.97;29395;236;63004;-58
2023/08/07 02:07:18;;;;;;;0.50;0.50;;;;;;;10.80;89.47;96775.56;29395;222;63009;-60
2023/08/07 02:07:49;;;;;;;0.50;0.50;;;;;;;10.82;90.11;96786.94;29394;231;64009;-55
2023/08/07 02:08:24;;;;;;;0.50;0.50;;;;;;;10.81;89.17;96778.00;29395;218;63008;-57
2023/08/07 02:08:58;;;;;;;0.50;0.50;;;;;;;10.77;88.81;96776.16;29395;198;63004;-60
2023/08/07 02:09:29;;;;;;;0.50;0.50;;;;;;;10.79;90.14;96780.19;29395;370;63009;-58
2023/08/07 02:10:01;;;;;;;0.50;0.50;;;;;;;10.80;90.42;96781.00;29395;209;63005;-63
2023/08/07 02:10:33;;;;;;;0.50;0.50;;;;;;;10.78;89.92;96778.59;29394;209;64014;-59
2023/08/07 02:11:04;;;;;;;0.50;0.50;;;;;;;10.79;90.77;96768.53;29395;263;63005;-61
2023/08/07 02:11:36;;;;;;;0.50;0.50;;;;;;;10.86;89.92;96774.41;29394;206;64013;-55
2023/08/07 02:12:08;;;;;;;0.55;0.55;;;;;;;10.87;89.17;96781.44;29395;212;63005;-56
2023/08/07 02:12:40;;;;;;;0.50;0.50;;;;;;;10.85;88.57;96778.22;29395;228;63009;-57
2023/08/07 02:13:11;;;;;;;0.50;0.50;;;;;;;10.82;88.73;96774.19;29394;262;64009;-57
2023/08/07 02:13:42;;;;;;;0.50;0.50;;;;;;;10.85;89.75;96781.72;29395;211;63009;-59
2023/08/07 02:14:14;;;;;;;0.50;0.50;;;;;;;10.88;89.39;96766.75;29394;298;64004;-56
2023/08/07 02:14:45;;;;;;;0.50;0.50;;;;;;;10.87;89.23;96774.09;29395;218;63009;-60
2023/08/07 02:15:17;;;;;;;0.50;0.50;;;;;;;10.85;89.87;96770.88;29395;215;63010;-61
2023/08/07 02:15:49;;;;;;;0.50;0.50;;;;;;;10.85;90.24;96778.22;29395;196;63009;-56
2023/08/07 02:16:21;;;;;;;0.50;0.50;;;;;;;10.80;90.25;96781.00;29395;202;63004;-61
2023/08/07 02:16:52;;;;;;;0.50;0.50;;;;;;;10.78;90.39;96777.78;29395;231;63009;-56
2023/08/07 02:17:25;;;;;;;0.50;0.50;;;;;;;10.75;90.45;96779.19;29394;202;64009;-60
2023/08/07 02:17:56;;;;;;;0.50;0.50;;;;;;;10.77;90.52;96779.69;29395;209;63009;-57
2023/08/07 02:18:28;;;;;;;0.50;0.50;;;;;;;10.77;90.29;96784.31;29395;244;63010;-57
2023/08/07 02:19:00;;;;;;;0.50;0.50;;;;;;;10.81;89.56;96779.91;29395;266;63009;-58
2023/08/07 02:19:31;;;;;;;0.50;0.50;;;;;;;10.79;89.24;96782.09;29395;212;63005;-56
2023/08/07 02:20:04;;;;;;;1.55;1.45;;;;;;;10.82;89.57;96778.81;29395;197;63009;-56
2023/08/07 02:20:35;;;;;;;0.50;0.50;;;;;;;10.81;89.30;96782.63;29395;255;63005;-57
2023/08/07 02:21:06;;;;;;;0.50;0.50;;;;;;;10.85;89.30;96786.34;29394;202;64013;-59
2023/08/07 02:21:37;;;;;;;0.50;0.50;;;;;;;10.85;89.39;96783.63;29395;219;63004;-57
2023/08/07 02:22:09;;;;;;;0.57;0.57;;;;;;;10.83;88.45;96786.66;29395;269;63009;-57
2023/08/07 02:22:40;;;;;;;0.50;0.50;;;;;;;10.83;89.24;96788.56;29395;265;63004;-57
2023/08/07 02:23:14;;;;;;;0.50;0.50;;;;;;;10.82;89.43;96789.66;29395;225;63018;-56
2023/08/07 02:23:46;;;;;;;0.50;0.50;;;;;;;10.80;89.64;96792.66;29395;227;63004;-57
2023/08/07 02:24:20;;;;;;;0.50;0.50;;;;;;;10.80;89.39;96792.66;29394;236;64014;-57
2023/08/07 02:24:51;;;;;;;0.50;0.50;;;;;;;10.75;88.32;96790.84;29395;223;63005;-60
2023/08/07 02:25:25;;;;;;;0.50;0.50;;;;;;;10.79;89.65;96795.69;29395;219;63009;-61
2023/08/07 02:25:57;;;;;;;0.50;0.50;;;;;;;10.86;89.38;96796.09;29395;226;63005;-65
2023/08/07 02:26:28;;;;;;;0.50;0.50;;;;;;;10.84;88.29;96793.69;29394;236;64013;-61
2023/08/07 02:26:59;;;;;;;0.50;0.50;;;;;;;10.81;88.70;96793.47;29394;214;64009;-57
2023/08/07 02:27:32;;;;;;;0.50;0.50;;;;;;;10.79;89.17;96795.69;29395;235;63009;-58
2023/08/07 02:28:04;;;;;;;0.50;0.50;;;;;;;10.78;89.29;96799.50;29395;199;63005;-56
2023/08/07 02:28:35;;;;;;;0.50;0.50;;;;;;;10.82;89.57;96789.66;29395;210;63009;-56
2023/08/07 02:29:08;;;;;;;0.50;0.50;;;;;;;10.83;89.27;96793.97;29394;232;64009;-62
2023/08/07 02:29:40;;;;;;;0.50;0.50;;;;;;;10.81;88.54;96793.47;29395;199;63009;-56
2023/08/07 02:30:12;;;;;;;0.50;0.50;;;;;;;10.80;89.12;96798.09;29395;210;63004;-55
2023/08/07 02:30:48;;;;;;;0.50;0.50;;;;;;;10.82;89.54;96800.50;29395;241;63009;-60
2023/08/07 02:31:20;;;;;;;0.50;0.50;;;;;;;10.80;89.78;96798.09;29394;214;64008;-56
2023/08/07 02:31:51;;;;;;;0.50;0.50;;;;;;;10.86;89.67;96806.97;29395;264;63009;-55
2023/08/07 02:32:22;;;;;;;0.50;0.50;;;;;;;10.89;89.20;96795.53;29395;229;63005;-61
2023/08/07 02:32:53;;;;;;;0.50;0.50;;;;;;;10.92;88.82;96794.94;29395;223;63009;-57
2023/08/07 02:33:24;;;;;;;0.50;0.50;;;;;;;10.99;88.15;96806.22;29395;241;63005;-64
2023/08/07 02:33:56;;;;;;;0.50;0.50;;;;;;;11.00;87.17;96796.97;29395;235;63009;-55
2023/08/07 02:34:27;;;;;;;0.50;0.50;;;;;;;11.00;87.57;96803.19;29395;244;63005;-55
2023/08/07 02:35:01;;;;;;;0.50;0.50;;;;;;;10.96;87.69;96795.94;29395;216;63009;-56
2023/08/07 02:35:32;;;;;;;0.50;0.50;;;;;;;10.90;87.14;96800.66;29395;241;63011;-55
2023/08/07 02:36:05;;;;;;;0.50;0.50;;;;;;;10.97;87.16;96803.00;29394;313;64013;-57
2023/08/07 02:36:36;;;;;;;0.50;0.50;;;;;;;11.03;87.32;96799.09;29395;212;63004;-59
2023/08/07 02:37:07;;;;;;;0.50;0.50;;;;;;;11.01;86.70;96798.59;29395;203;63013;-56
2023/08/07 02:37:39;;;;;;;0.50;0.50;;;;;;;10.98;86.10;96796.47;29395;222;63004;-63
2023/08/07 02:38:10;;;;;;;0.50;0.50;;;;;;;10.94;86.30;96800.87;29395;237;63008;-57
2023/08/07 02:38:41;;;;;;;0.50;0.50;;;;;;;10.93;87.00;96797.34;29394;234;64008;-55
2023/08/07 02:39:14;;;;;;;0.50;0.50;;;;;;;10.91;87.12;96806.87;29395;202;63008;-60